LOWL/LNZ METAR and TAF weather

Enter ICAO airport designator
Station Type Date Time Source
LOWL METAR 2023/01/29 18:50 UTC NOAA

LOWL 291850Z AUTO 28005KT 9999 FEW024 BKN026 M01/M04 Q1025 NOSIG


Station Type Date Time Source
LOWL Decoded METAR 2023/01/29 18:50 UTC NOAA

Linz / Hoersching-Flughafen, Austria (LOWL) 48-14N 014-11E 313M
Jan 29, 2023 - 01:50 PM EST / 2023.01.29 1850 UTC
Wind: from the W (280 degrees) at 6 MPH (5 KT):0
Visibility: greater than 7 mile(s):0
Sky conditions: mostly cloudy
Temperature: 30 F (-1 C)
Windchill: 23 F (-5 C):1
Dew Point: 24 F (-4 C)
Relative Humidity: 80%
Pressure (altimeter): 30.27 in. Hg (1025 hPa)
ob: LOWL 291850Z AUTO 28005KT 9999 FEW024 BKN026 M01/M04 Q1025 NOSIG
cycle: 19

Station Type Date Time Source
LOWL TAF 2023/01/29 18:21 UTC NOAA

TAF LOWL 291715Z 2918/3018 28008KT 9999 BKN025 TX03/3017Z TNM03/3001Z
FM300800 29015G30KT 9999 BKN020
BECMG 3010/3012 4000 -SN BKN010
TEMPO 3011/3015 1000 SHSN BKN005 PROB30
TEMPO 3012/3014 30020G40KT 0300 +SHSN VV002

Example: see airport list